sensor_id;sensor_type;location;lat;lon;timestamp;P1;durP1;ratioP1;P2;durP2;ratioP2
19006;SDS011;9636;47.382;8.480;2024-02-15T00:01:40;5.60;;;2.60;;
19006;SDS011;9636;47.382;8.480;2024-02-15T00:04:09;4.27;;;2.70;;
19006;SDS011;9636;47.382;8.480;2024-02-15T00:06:36;6.13;;;2.50;;
19006;SDS011;9636;47.382;8.480;2024-02-15T00:09:03;4.23;;;2.40;;
19006;SDS011;9636;47.382;8.480;2024-02-15T00:11:30;4.00;;;2.60;;
19006;SDS011;9636;47.382;8.480;2024-02-15T00:13:57;7.77;;;2.87;;
19006;SDS011;9636;47.382;8.480;2024-02-15T00:16:25;5.53;;;2.80;;
19006;SDS011;9636;47.382;8.480;2024-02-15T00:18:53;4.03;;;2.40;;
19006;SDS011;9636;47.382;8.480;2024-02-15T00:21:21;4.30;;;2.60;;
19006;SDS011;9636;47.382;8.480;2024-02-15T00:23:48;4.13;;;2.60;;
19006;SDS011;9636;47.382;8.480;2024-02-15T00:26:15;3.27;;;2.47;;
19006;SDS011;9636;47.382;8.480;2024-02-15T00:28:42;4.10;;;2.40;;
19006;SDS011;9636;47.382;8.480;2024-02-15T00:31:09;3.93;;;2.57;;
19006;SDS011;9636;47.382;8.480;2024-02-15T00:33:35;5.43;;;2.40;;
19006;SDS011;9636;47.382;8.480;2024-02-15T00:36:02;4.30;;;2.60;;
19006;SDS011;9636;47.382;8.480;2024-02-15T00:38:31;4.40;;;2.77;;
19006;SDS011;9636;47.382;8.480;2024-02-15T00:40:58;5.50;;;3.10;;
19006;SDS011;9636;47.382;8.480;2024-02-15T00:43:26;5.87;;;2.80;;
19006;SDS011;9636;47.382;8.480;2024-02-15T00:45:53;4.67;;;3.10;;
19006;SDS011;9636;47.382;8.480;2024-02-15T00:48:20;7.67;;;3.07;;
19006;SDS011;9636;47.382;8.480;2024-02-15T00:50:47;4.37;;;2.70;;
19006;SDS011;9636;47.382;8.480;2024-02-15T00:53:14;4.27;;;2.60;;
19006;SDS011;9636;47.382;8.480;2024-02-15T00:55:43;6.03;;;2.30;;
19006;SDS011;9636;47.382;8.480;2024-02-15T00:58:10;3.53;;;2.60;;
19006;SDS011;9636;47.382;8.480;2024-02-15T01:00:37;4.57;;;2.50;;
19006;SDS011;9636;47.382;8.480;2024-02-15T01:03:04;4.87;;;2.20;;
19006;SDS011;9636;47.382;8.480;2024-02-15T01:05:31;7.87;;;2.40;;
19006;SDS011;9636;47.382;8.480;2024-02-15T01:07:59;4.93;;;2.30;;
19006;SDS011;9636;47.382;8.480;2024-02-15T01:10:26;3.87;;;2.60;;
19006;SDS011;9636;47.382;8.480;2024-02-15T01:12:54;5.77;;;2.40;;
19006;SDS011;9636;47.382;8.480;2024-02-15T01:15:21;4.73;;;2.50;;
19006;SDS011;9636;47.382;8.480;2024-02-15T01:17:48;4.60;;;2.50;;
19006;SDS011;9636;47.382;8.480;2024-02-15T01:20:14;3.57;;;2.47;;
19006;SDS011;9636;47.382;8.480;2024-02-15T01:22:41;7.67;;;2.73;;
19006;SDS011;9636;47.382;8.480;2024-02-15T01:25:09;3.67;;;2.30;;
19006;SDS011;9636;47.382;8.480;2024-02-15T01:27:36;3.00;;;2.20;;
19006;SDS011;9636;47.382;8.480;2024-02-15T01:30:06;3.90;;;2.27;;
19006;SDS011;9636;47.382;8.480;2024-02-15T01:32:33;3.77;;;2.20;;
19006;SDS011;9636;47.382;8.480;2024-02-15T01:35:00;4.03;;;2.30;;
19006;SDS011;9636;47.382;8.480;2024-02-15T01:37:27;5.07;;;2.43;;
19006;SDS011;9636;47.382;8.480;2024-02-15T01:39:53;4.17;;;2.50;;
19006;SDS011;9636;47.382;8.480;2024-02-15T01:42:20;4.27;;;2.80;;
19006;SDS011;9636;47.382;8.480;2024-02-15T01:44:47;3.63;;;2.33;;
19006;SDS011;9636;47.382;8.480;2024-02-15T01:47:16;7.50;;;2.70;;
19006;SDS011;9636;47.382;8.480;2024-02-15T01:49:44;6.20;;;2.53;;
19006;SDS011;9636;47.382;8.480;2024-02-15T01:52:11;7.03;;;2.70;;
19006;SDS011;9636;47.382;8.480;2024-02-15T01:54:39;4.80;;;2.37;;
19006;SDS011;9636;47.382;8.480;2024-02-15T01:57:06;4.17;;;2.33;;
19006;SDS011;9636;47.382;8.480;2024-02-15T01:59:33;5.17;;;2.20;;
19006;SDS011;9636;47.382;8.480;2024-02-15T02:02:00;3.00;;;2.00;;
19006;SDS011;9636;47.382;8.480;2024-02-15T02:04:31;3.30;;;2.60;;
19006;SDS011;9636;47.382;8.480;2024-02-15T02:06:58;5.10;;;2.30;;
19006;SDS011;9636;47.382;8.480;2024-02-15T02:09:25;3.27;;;2.33;;
19006;SDS011;9636;47.382;8.480;2024-02-15T02:11:52;6.07;;;2.50;;
19006;SDS011;9636;47.382;8.480;2024-02-15T02:14:19;3.30;;;2.30;;
19006;SDS011;9636;47.382;8.480;2024-02-15T02:16:46;2.90;;;1.87;;
19006;SDS011;9636;47.382;8.480;2024-02-15T02:19:12;5.30;;;2.27;;
19006;SDS011;9636;47.382;8.480;2024-02-15T02:21:40;5.17;;;2.40;;
19006;SDS011;9636;47.382;8.480;2024-02-15T02:24:09;4.77;;;2.67;;
19006;SDS011;9636;47.382;8.480;2024-02-15T02:26:41;4.53;;;2.67;;
19006;SDS011;9636;47.382;8.480;2024-02-15T02:29:08;5.90;;;2.70;;
19006;SDS011;9636;47.382;8.480;2024-02-15T02:31:35;3.43;;;2.23;;
19006;SDS011;9636;47.382;8.480;2024-02-15T02:34:02;6.33;;;2.80;;
19006;SDS011;9636;47.382;8.480;2024-02-15T02:36:31;5.20;;;3.00;;
19006;SDS011;9636;47.382;8.480;2024-02-15T02:38:58;5.40;;;2.90;;
19006;SDS011;9636;47.382;8.480;2024-02-15T02:41:25;4.10;;;2.50;;
19006;SDS011;9636;47.382;8.480;2024-02-15T02:43:54;6.20;;;2.80;;
19006;SDS011;9636;47.382;8.480;2024-02-15T02:46:21;4.70;;;2.70;;
19006;SDS011;9636;47.382;8.480;2024-02-15T02:48:48;4.73;;;2.80;;
19006;SDS011;9636;47.382;8.480;2024-02-15T02:51:15;4.47;;;2.83;;
19006;SDS011;9636;47.382;8.480;2024-02-15T02:53:42;5.30;;;3.20;;
19006;SDS011;9636;47.382;8.480;2024-02-15T02:56:09;4.37;;;2.37;;
19006;SDS011;9636;47.382;8.480;2024-02-15T02:58:35;7.90;;;2.40;;
19006;SDS011;9636;47.382;8.480;2024-02-15T03:01:04;5.70;;;2.47;;
19006;SDS011;9636;47.382;8.480;2024-02-15T03:03:31;4.97;;;2.70;;
19006;SDS011;9636;47.382;8.480;2024-02-15T03:05:58;4.90;;;2.80;;
19006;SDS011;9636;47.382;8.480;2024-02-15T03:08:24;3.67;;;2.67;;
19006;SDS011;9636;47.382;8.480;2024-02-15T03:10:51;3.77;;;2.60;;
19006;SDS011;9636;47.382;8.480;2024-02-15T03:13:18;5.17;;;2.60;;
19006;SDS011;9636;47.382;8.480;2024-02-15T03:15:46;4.37;;;2.87;;
19006;SDS011;9636;47.382;8.480;2024-02-15T03:18:15;3.20;;;2.60;;
19006;SDS011;9636;47.382;8.480;2024-02-15T03:20:42;3.77;;;2.70;;
19006;SDS011;9636;47.382;8.480;2024-02-15T03:23:09;4.97;;;2.80;;
19006;SDS011;9636;47.382;8.480;2024-02-15T03:25:36;5.40;;;2.63;;
19006;SDS011;9636;47.382;8.480;2024-02-15T03:28:03;7.27;;;2.90;;
19006;SDS011;9636;47.382;8.480;2024-02-15T03:30:31;5.57;;;2.60;;
19006;SDS011;9636;47.382;8.480;2024-02-15T03:33:00;3.77;;;2.40;;
19006;SDS011;9636;47.382;8.480;2024-02-15T03:35:29;4.23;;;2.27;;
19006;SDS011;9636;47.382;8.480;2024-02-15T03:37:57;3.90;;;2.37;;
19006;SDS011;9636;47.382;8.480;2024-02-15T03:40:24;2.20;;;1.80;;
19006;SDS011;9636;47.382;8.480;2024-02-15T03:42:51;3.63;;;2.10;;
19006;SDS011;9636;47.382;8.480;2024-02-15T03:45:18;3.37;;;2.10;;
19006;SDS011;9636;47.382;8.480;2024-02-15T03:47:46;3.87;;;1.70;;
19006;SDS011;9636;47.382;8.480;2024-02-15T03:50:15;4.57;;;2.33;;
19006;SDS011;9636;47.382;8.480;2024-02-15T03:52:43;2.83;;;2.10;;
19006;SDS011;9636;47.382;8.480;2024-02-15T03:55:10;4.17;;;2.17;;
19006;SDS011;9636;47.382;8.480;2024-02-15T03:57:37;3.23;;;2.47;;
19006;SDS011;9636;47.382;8.480;2024-02-15T04:00:06;3.30;;;2.27;;
19006;SDS011;9636;47.382;8.480;2024-02-15T04:02:36;4.07;;;2.20;;
19006;SDS011;9636;47.382;8.480;2024-02-15T04:05:05;3.27;;;2.17;;
19006;SDS011;9636;47.382;8.480;2024-02-15T04:07:34;3.40;;;2.60;;
19006;SDS011;9636;47.382;8.480;2024-02-15T04:10:03;5.17;;;2.40;;
19006;SDS011;9636;47.382;8.480;2024-02-15T04:12:31;3.77;;;2.37;;
19006;SDS011;9636;47.382;8.480;2024-02-15T04:14:58;3.80;;;2.40;;
19006;SDS011;9636;47.382;8.480;2024-02-15T04:17:30;6.87;;;2.60;;
19006;SDS011;9636;47.382;8.480;2024-02-15T04:19:57;6.07;;;2.80;;
19006;SDS011;9636;47.382;8.480;2024-02-15T04:22:25;3.80;;;2.30;;
19006;SDS011;9636;47.382;8.480;2024-02-15T04:24:52;5.13;;;2.33;;
19006;SDS011;9636;47.382;8.480;2024-02-15T04:27:21;3.20;;;2.27;;
19006;SDS011;9636;47.382;8.480;2024-02-15T04:29:48;3.73;;;2.47;;
19006;SDS011;9636;47.382;8.480;2024-02-15T04:32:15;5.03;;;2.50;;
19006;SDS011;9636;47.382;8.480;2024-02-15T04:34:44;3.70;;;2.53;;
19006;SDS011;9636;47.382;8.480;2024-02-15T04:37:12;3.00;;;2.27;;
19006;SDS011;9636;47.382;8.480;2024-02-15T04:39:39;2.67;;;2.23;;
19006;SDS011;9636;47.382;8.480;2024-02-15T04:42:06;4.73;;;2.40;;
19006;SDS011;9636;47.382;8.480;2024-02-15T04:44:37;5.33;;;2.60;;
19006;SDS011;9636;47.382;8.480;2024-02-15T04:47:04;3.63;;;2.70;;
19006;SDS011;9636;47.382;8.480;2024-02-15T04:49:31;5.00;;;2.70;;
19006;SDS011;9636;47.382;8.480;2024-02-15T04:51:58;3.67;;;2.40;;
19006;SDS011;9636;47.382;8.480;2024-02-15T04:54:27;5.10;;;2.77;;
19006;SDS011;9636;47.382;8.480;2024-02-15T04:56:54;7.83;;;2.60;;
19006;SDS011;9636;47.382;8.480;2024-02-15T04:59:22;4.90;;;2.90;;
19006;SDS011;9636;47.382;8.480;2024-02-15T05:01:52;5.33;;;2.30;;
19006;SDS011;9636;47.382;8.480;2024-02-15T05:04:19;4.57;;;2.40;;
19006;SDS011;9636;47.382;8.480;2024-02-15T05:06:46;3.63;;;2.80;;
19006;SDS011;9636;47.382;8.480;2024-02-15T05:09:12;2.97;;;2.27;;
19006;SDS011;9636;47.382;8.480;2024-02-15T05:11:40;5.53;;;2.70;;
19006;SDS011;9636;47.382;8.480;2024-02-15T05:14:11;5.00;;;2.60;;
19006;SDS011;9636;47.382;8.480;2024-02-15T05:16:38;2.93;;;2.30;;
19006;SDS011;9636;47.382;8.480;2024-02-15T05:19:08;4.83;;;2.70;;
19006;SDS011;9636;47.382;8.480;2024-02-15T05:21:37;4.63;;;2.30;;
19006;SDS011;9636;47.382;8.480;2024-02-15T05:24:04;3.37;;;2.53;;
19006;SDS011;9636;47.382;8.480;2024-02-15T05:26:31;3.97;;;2.70;;
19006;SDS011;9636;47.382;8.480;2024-02-15T05:28:58;6.03;;;2.33;;
19006;SDS011;9636;47.382;8.480;2024-02-15T05:31:25;4.07;;;2.43;;
19006;SDS011;9636;47.382;8.480;2024-02-15T05:33:52;3.07;;;2.23;;
19006;SDS011;9636;47.382;8.480;2024-02-15T05:36:21;4.10;;;2.27;;
19006;SDS011;9636;47.382;8.480;2024-02-15T05:38:51;3.07;;;2.00;;
19006;SDS011;9636;47.382;8.480;2024-02-15T05:41:19;2.90;;;2.00;;
19006;SDS011;9636;47.382;8.480;2024-02-15T05:43:46;4.47;;;2.40;;
19006;SDS011;9636;47.382;8.480;2024-02-15T05:46:14;3.57;;;2.17;;
19006;SDS011;9636;47.382;8.480;2024-02-15T05:48:41;4.50;;;2.23;;
19006;SDS011;9636;47.382;8.480;2024-02-15T05:51:08;3.00;;;2.20;;
19006;SDS011;9636;47.382;8.480;2024-02-15T05:53:36;3.97;;;2.30;;
19006;SDS011;9636;47.382;8.480;2024-02-15T05:56:03;5.50;;;2.40;;
19006;SDS011;9636;47.382;8.480;2024-02-15T05:58:30;3.90;;;2.70;;
19006;SDS011;9636;47.382;8.480;2024-02-15T06:00:58;4.13;;;2.40;;
19006;SDS011;9636;47.382;8.480;2024-02-15T06:03:26;4.33;;;2.60;;
19006;SDS011;9636;47.382;8.480;2024-02-15T06:05:53;6.30;;;2.70;;
19006;SDS011;9636;47.382;8.480;2024-02-15T06:08:23;3.77;;;2.60;;
19006;SDS011;9636;47.382;8.480;2024-02-15T06:10:51;4.00;;;2.60;;
19006;SDS011;9636;47.382;8.480;2024-02-15T06:13:18;6.10;;;2.53;;
19006;SDS011;9636;47.382;8.480;2024-02-15T06:15:45;3.97;;;2.40;;
19006;SDS011;9636;47.382;8.480;2024-02-15T06:18:17;3.07;;;2.57;;
19006;SDS011;9636;47.382;8.480;2024-02-15T06:20:46;6.63;;;2.67;;
19006;SDS011;9636;47.382;8.480;2024-02-15T06:23:14;5.07;;;2.70;;
19006;SDS011;9636;47.382;8.480;2024-02-15T06:25:41;4.83;;;2.70;;
19006;SDS011;9636;47.382;8.480;2024-02-15T06:28:10;5.60;;;3.17;;
19006;SDS011;9636;47.382;8.480;2024-02-15T06:30:59;4.90;;;3.10;;
19006;SDS011;9636;47.382;8.480;2024-02-15T06:33:43;6.40;;;3.00;;
19006;SDS011;9636;47.382;8.480;2024-02-15T06:36:28;7.60;;;3.90;;
19006;SDS011;9636;47.382;8.480;2024-02-15T06:39:12;8.83;;;3.10;;
19006;SDS011;9636;47.382;8.480;2024-02-15T06:41:56;7.20;;;3.27;;
19006;SDS011;9636;47.382;8.480;2024-02-15T06:44:25;4.73;;;3.10;;
19006;SDS011;9636;47.382;8.480;2024-02-15T06:46:51;9.80;;;4.13;;
19006;SDS011;9636;47.382;8.480;2024-02-15T06:49:18;4.57;;;3.13;;
19006;SDS011;9636;47.382;8.480;2024-02-15T06:51:47;7.57;;;3.33;;
19006;SDS011;9636;47.382;8.480;2024-02-15T06:54:13;4.57;;;3.43;;
19006;SDS011;9636;47.382;8.480;2024-02-15T06:56:42;8.73;;;3.30;;
19006;SDS011;9636;47.382;8.480;2024-02-15T06:59:11;5.37;;;3.13;;
19006;SDS011;9636;47.382;8.480;2024-02-15T07:01:40;4.43;;;3.53;;
19006;SDS011;9636;47.382;8.480;2024-02-15T07:04:08;8.67;;;4.10;;
19006;SDS011;9636;47.382;8.480;2024-02-15T07:06:35;9.80;;;4.00;;
19006;SDS011;9636;47.382;8.480;2024-02-15T07:09:03;5.67;;;3.30;;
19006;SDS011;9636;47.382;8.480;2024-02-15T07:11:31;9.00;;;4.10;;
19006;SDS011;9636;47.382;8.480;2024-02-15T07:13:59;9.10;;;3.87;;
19006;SDS011;9636;47.382;8.480;2024-02-15T07:16:26;5.03;;;3.53;;
19006;SDS011;9636;47.382;8.480;2024-02-15T07:18:54;7.77;;;3.43;;
19006;SDS011;9636;47.382;8.480;2024-02-15T07:21:21;6.77;;;3.67;;
19006;SDS011;9636;47.382;8.480;2024-02-15T07:23:52;7.00;;;4.00;;
19006;SDS011;9636;47.382;8.480;2024-02-15T07:26:19;7.23;;;3.43;;
19006;SDS011;9636;47.382;8.480;2024-02-15T07:28:49;7.10;;;3.17;;
19006;SDS011;9636;47.382;8.480;2024-02-15T07:31:17;5.13;;;3.93;;
19006;SDS011;9636;47.382;8.480;2024-02-15T07:37:02;9.60;;;3.87;;
19006;SDS011;9636;47.382;8.480;2024-02-15T07:39:28;10.97;;;4.37;;
19006;SDS011;9636;47.382;8.480;2024-02-15T07:41:55;7.80;;;4.07;;
19006;SDS011;9636;47.382;8.480;2024-02-15T07:44:23;8.50;;;3.87;;
19006;SDS011;9636;47.382;8.480;2024-02-15T07:46:50;7.83;;;3.83;;
19006;SDS011;9636;47.382;8.480;2024-02-15T07:49:17;8.80;;;4.13;;
19006;SDS011;9636;47.382;8.480;2024-02-15T07:51:44;8.20;;;4.50;;
19006;SDS011;9636;47.382;8.480;2024-02-15T07:54:14;10.30;;;4.27;;
19006;SDS011;9636;47.382;8.480;2024-02-15T07:56:40;9.80;;;4.90;;
19006;SDS011;9636;47.382;8.480;2024-02-15T07:59:08;8.23;;;4.03;;
19006;SDS011;9636;47.382;8.480;2024-02-15T08:01:34;10.47;;;4.43;;
19006;SDS011;9636;47.382;8.480;2024-02-15T08:04:01;10.00;;;4.73;;
19006;SDS011;9636;47.382;8.480;2024-02-15T08:06:28;7.70;;;4.67;;
19006;SDS011;9636;47.382;8.480;2024-02-15T08:08:57;8.83;;;4.70;;
19006;SDS011;9636;47.382;8.480;2024-02-15T08:11:25;7.60;;;4.60;;
19006;SDS011;9636;47.382;8.480;2024-02-15T08:13:52;8.97;;;5.00;;
19006;SDS011;9636;47.382;8.480;2024-02-15T08:16:22;8.17;;;5.20;;
19006;SDS011;9636;47.382;8.480;2024-02-15T08:18:49;12.30;;;4.93;;
19006;SDS011;9636;47.382;8.480;2024-02-15T08:21:18;9.77;;;5.33;;
19006;SDS011;9636;47.382;8.480;2024-02-15T08:23:50;9.47;;;5.10;;
19006;SDS011;9636;47.382;8.480;2024-02-15T08:26:17;8.63;;;5.13;;
19006;SDS011;9636;47.382;8.480;2024-02-15T08:28:45;7.33;;;4.53;;
19006;SDS011;9636;47.382;8.480;2024-02-15T08:31:12;9.43;;;5.23;;
19006;SDS011;9636;47.382;8.480;2024-02-15T08:33:40;10.93;;;5.10;;
19006;SDS011;9636;47.382;8.480;2024-02-15T08:36:08;8.97;;;5.43;;
19006;SDS011;9636;47.382;8.480;2024-02-15T08:38:35;8.23;;;4.80;;
19006;SDS011;9636;47.382;8.480;2024-02-15T08:41:03;7.97;;;5.07;;
19006;SDS011;9636;47.382;8.480;2024-02-15T08:43:32;11.87;;;5.67;;
19006;SDS011;9636;47.382;8.480;2024-02-15T08:46:00;9.80;;;5.30;;
19006;SDS011;9636;47.382;8.480;2024-02-15T08:48:27;10.00;;;4.80;;
19006;SDS011;9636;47.382;8.480;2024-02-15T08:50:55;8.97;;;4.80;;
19006;SDS011;9636;47.382;8.480;2024-02-15T08:53:22;7.53;;;4.70;;
19006;SDS011;9636;47.382;8.480;2024-02-15T08:55:49;10.37;;;4.70;;
19006;SDS011;9636;47.382;8.480;2024-02-15T08:58:18;9.37;;;5.00;;
19006;SDS011;9636;47.382;8.480;2024-02-15T09:00:46;9.70;;;4.50;;
19006;SDS011;9636;47.382;8.480;2024-02-15T09:03:14;7.77;;;4.63;;
19006;SDS011;9636;47.382;8.480;2024-02-15T09:05:41;8.73;;;5.30;;
19006;SDS011;9636;47.382;8.480;2024-02-15T09:08:08;7.00;;;4.87;;
19006;SDS011;9636;47.382;8.480;2024-02-15T09:10:35;7.83;;;4.33;;
19006;SDS011;9636;47.382;8.480;2024-02-15T09:13:04;10.27;;;4.33;;
19006;SDS011;9636;47.382;8.480;2024-02-15T09:15:32;8.80;;;4.87;;
19006;SDS011;9636;47.382;8.480;2024-02-15T09:17:58;8.80;;;4.80;;
19006;SDS011;9636;47.382;8.480;2024-02-15T09:20:27;7.97;;;4.33;;
19006;SDS011;9636;47.382;8.480;2024-02-15T09:22:54;8.07;;;4.87;;
19006;SDS011;9636;47.382;8.480;2024-02-15T09:25:21;12.43;;;5.70;;
19006;SDS011;9636;47.382;8.480;2024-02-15T09:27:49;11.30;;;5.00;;
19006;SDS011;9636;47.382;8.480;2024-02-15T09:30:19;9.20;;;5.00;;
19006;SDS011;9636;47.382;8.480;2024-02-15T09:32:49;9.50;;;5.50;;
19006;SDS011;9636;47.382;8.480;2024-02-15T09:35:17;8.83;;;5.47;;
19006;SDS011;9636;47.382;8.480;2024-02-15T09:37:47;15.20;;;5.67;;
19006;SDS011;9636;47.382;8.480;2024-02-15T09:40:15;10.60;;;5.63;;
19006;SDS011;9636;47.382;8.480;2024-02-15T09:42:43;10.23;;;5.53;;
19006;SDS011;9636;47.382;8.480;2024-02-15T09:45:10;13.30;;;5.87;;
19006;SDS011;9636;47.382;8.480;2024-02-15T09:47:39;8.47;;;5.67;;
19006;SDS011;9636;47.382;8.480;2024-02-15T09:50:07;15.33;;;5.80;;
19006;SDS011;9636;47.382;8.480;2024-02-15T09:52:36;9.80;;;5.10;;
19006;SDS011;9636;47.382;8.480;2024-02-15T09:55:07;11.50;;;5.60;;
19006;SDS011;9636;47.382;8.480;2024-02-15T09:57:38;8.63;;;5.30;;
19006;SDS011;9636;47.382;8.480;2024-02-15T10:00:06;8.77;;;5.37;;
19006;SDS011;9636;47.382;8.480;2024-02-15T10:02:34;11.57;;;5.60;;
19006;SDS011;9636;47.382;8.480;2024-02-15T10:05:03;20.63;;;7.93;;
19006;SDS011;9636;47.382;8.480;2024-02-15T10:07:30;9.83;;;4.87;;
19006;SDS011;9636;47.382;8.480;2024-02-15T10:09:57;8.73;;;4.60;;
19006;SDS011;9636;47.382;8.480;2024-02-15T10:12:43;9.60;;;7.20;;
19006;SDS011;9636;47.382;8.480;2024-02-15T10:15:14;9.10;;;5.00;;
19006;SDS011;9636;47.382;8.480;2024-02-15T10:17:53;6.57;;;4.63;;
19006;SDS011;9636;47.382;8.480;2024-02-15T10:20:21;7.67;;;4.53;;
19006;SDS011;9636;47.382;8.480;2024-02-15T10:22:50;5.37;;;4.43;;
19006;SDS011;9636;47.382;8.480;2024-02-15T10:25:19;7.37;;;4.80;;
19006;SDS011;9636;47.382;8.480;2024-02-15T10:27:47;11.93;;;5.03;;
19006;SDS011;9636;47.382;8.480;2024-02-15T10:30:15;10.53;;;4.93;;
19006;SDS011;9636;47.382;8.480;2024-02-15T10:32:43;6.93;;;4.93;;
19006;SDS011;9636;47.382;8.480;2024-02-15T10:35:10;7.83;;;4.13;;
19006;SDS011;9636;47.382;8.480;2024-02-15T10:37:44;7.47;;;5.00;;
19006;SDS011;9636;47.382;8.480;2024-02-15T10:40:12;8.45;;;4.90;;
19006;SDS011;9636;47.382;8.480;2024-02-15T10:42:41;8.80;;;4.60;;
19006;SDS011;9636;47.382;8.480;2024-02-15T10:45:11;8.40;;;4.75;;
19006;SDS011;9636;47.382;8.480;2024-02-15T10:47:39;11.35;;;4.57;;
19006;SDS011;9636;47.382;8.480;2024-02-15T10:50:08;9.10;;;4.50;;
19006;SDS011;9636;47.382;8.480;2024-02-15T10:52:36;11.97;;;4.73;;
19006;SDS011;9636;47.382;8.480;2024-02-15T10:55:06;6.60;;;4.82;;
19006;SDS011;9636;47.382;8.480;2024-02-15T10:57:39;7.33;;;4.73;;
19006;SDS011;9636;47.382;8.480;2024-02-15T11:00:10;13.30;;;5.25;;
19006;SDS011;9636;47.382;8.480;2024-02-15T11:02:47;11.30;;;5.07;;
19006;SDS011;9636;47.382;8.480;2024-02-15T11:05:20;6.13;;;4.60;;
19006;SDS011;9636;47.382;8.480;2024-02-15T11:07:49;9.52;;;4.68;;
19006;SDS011;9636;47.382;8.480;2024-02-15T11:10:16;8.48;;;5.05;;
19006;SDS011;9636;47.382;8.480;2024-02-15T11:12:43;9.23;;;4.40;;
19006;SDS011;9636;47.382;8.480;2024-02-15T11:15:12;8.32;;;4.50;;
19006;SDS011;9636;47.382;8.480;2024-02-15T11:18:13;8.25;;;4.35;;
19006;SDS011;9636;47.382;8.480;2024-02-15T11:21:10;9.30;;;4.63;;
19006;SDS011;9636;47.382;8.480;2024-02-15T11:23:36;8.90;;;4.65;;
19006;SDS011;9636;47.382;8.480;2024-02-15T11:26:04;8.63;;;4.70;;
19006;SDS011;9636;47.382;8.480;2024-02-15T11:28:43;8.23;;;4.07;;
19006;SDS011;9636;47.382;8.480;2024-02-15T11:40:11;4.22;;;3.60;;
19006;SDS011;9636;47.382;8.480;2024-02-15T11:42:38;3.78;;;3.35;;
19006;SDS011;9636;47.382;8.480;2024-02-15T11:45:05;7.70;;;4.05;;
19006;SDS011;9636;47.382;8.480;2024-02-15T11:47:33;5.50;;;4.38;;
19006;SDS011;9636;47.382;8.480;2024-02-15T11:50:05;4.68;;;3.70;;
19006;SDS011;9636;47.382;8.480;2024-02-15T11:52:37;6.90;;;3.63;;
19006;SDS011;9636;47.382;8.480;2024-02-15T11:55:04;7.65;;;4.00;;
19006;SDS011;9636;47.382;8.480;2024-02-15T11:57:35;6.97;;;3.50;;
19006;SDS011;9636;47.382;8.480;2024-02-15T12:00:18;5.53;;;3.38;;
19006;SDS011;9636;47.382;8.480;2024-02-15T12:03:00;6.78;;;3.20;;
19006;SDS011;9636;47.382;8.480;2024-02-15T12:05:46;5.90;;;3.60;;
19006;SDS011;9636;47.382;8.480;2024-02-15T12:08:32;5.70;;;3.30;;
19006;SDS011;9636;47.382;8.480;2024-02-15T12:11:17;6.63;;;3.30;;
19006;SDS011;9636;47.382;8.480;2024-02-15T12:14:01;5.07;;;3.55;;
19006;SDS011;9636;47.382;8.480;2024-02-15T12:16:45;6.78;;;3.60;;
19006;SDS011;9636;47.382;8.480;2024-02-15T12:19:29;4.43;;;3.30;;
19006;SDS011;9636;47.382;8.480;2024-02-15T12:21:57;5.38;;;2.97;;
19006;SDS011;9636;47.382;8.480;2024-02-15T12:24:26;4.75;;;3.40;;
19006;SDS011;9636;47.382;8.480;2024-02-15T12:26:59;5.40;;;3.30;;
19006;SDS011;9636;47.382;8.480;2024-02-15T12:29:28;4.25;;;3.30;;
19006;SDS011;9636;47.382;8.480;2024-02-15T12:31:55;5.07;;;3.30;;
19006;SDS011;9636;47.382;8.480;2024-02-15T12:34:23;4.38;;;3.08;;
19006;SDS011;9636;47.382;8.480;2024-02-15T12:36:50;6.40;;;3.13;;
19006;SDS011;9636;47.382;8.480;2024-02-15T12:39:32;5.70;;;3.20;;
19006;SDS011;9636;47.382;8.480;2024-02-15T12:41:59;4.55;;;2.83;;
19006;SDS011;9636;47.382;8.480;2024-02-15T12:44:26;3.25;;;2.80;;
19006;SDS011;9636;47.382;8.480;2024-02-15T12:46:57;2.63;;;2.42;;
19006;SDS011;9636;47.382;8.480;2024-02-15T12:49:28;4.20;;;2.80;;
19006;SDS011;9636;47.382;8.480;2024-02-15T12:55:08;4.03;;;3.00;;
19006;SDS011;9636;47.382;8.480;2024-02-15T12:57:37;3.45;;;2.80;;
19006;SDS011;9636;47.382;8.480;2024-02-15T13:00:06;4.82;;;2.75;;
19006;SDS011;9636;47.382;8.480;2024-02-15T13:02:39;4.53;;;2.83;;
19006;SDS011;9636;47.382;8.480;2024-02-15T13:05:06;6.68;;;3.15;;
19006;SDS011;9636;47.382;8.480;2024-02-15T13:07:34;5.38;;;2.85;;
19006;SDS011;9636;47.382;8.480;2024-02-15T13:10:01;6.15;;;2.85;;
19006;SDS011;9636;47.382;8.480;2024-02-15T13:12:33;6.30;;;2.70;;
19006;SDS011;9636;47.382;8.480;2024-02-15T13:15:01;6.60;;;2.47;;
19006;SDS011;9636;47.382;8.480;2024-02-15T13:17:29;5.78;;;2.67;;
19006;SDS011;9636;47.382;8.480;2024-02-15T13:19:57;4.38;;;2.83;;
19006;SDS011;9636;47.382;8.480;2024-02-15T13:22:30;3.67;;;2.78;;
19006;SDS011;9636;47.382;8.480;2024-02-15T13:24:59;3.42;;;2.53;;
19006;SDS011;9636;47.382;8.480;2024-02-15T13:27:28;4.50;;;2.67;;
19006;SDS011;9636;47.382;8.480;2024-02-15T13:29:56;7.85;;;3.05;;
19006;SDS011;9636;47.382;8.480;2024-02-15T13:32:23;3.92;;;3.15;;
19006;SDS011;9636;47.382;8.480;2024-02-15T13:34:50;4.10;;;2.95;;
19006;SDS011;9636;47.382;8.480;2024-02-15T13:37:20;3.30;;;2.90;;
19006;SDS011;9636;47.382;8.480;2024-02-15T13:39:48;7.35;;;2.92;;
19006;SDS011;9636;47.382;8.480;2024-02-15T13:42:16;4.80;;;3.45;;
19006;SDS011;9636;47.382;8.480;2024-02-15T13:44:44;5.80;;;3.05;;
19006;SDS011;9636;47.382;8.480;2024-02-15T13:47:12;3.58;;;3.28;;
19006;SDS011;9636;47.382;8.480;2024-02-15T13:49:41;5.55;;;3.03;;
19006;SDS011;9636;47.382;8.480;2024-02-15T13:52:08;7.63;;;3.53;;
19006;SDS011;9636;47.382;8.480;2024-02-15T13:54:36;8.02;;;3.60;;
19006;SDS011;9636;47.382;8.480;2024-02-15T13:57:03;4.75;;;3.28;;
19006;SDS011;9636;47.382;8.480;2024-02-15T13:59:30;6.75;;;3.50;;
19006;SDS011;9636;47.382;8.480;2024-02-15T14:01:56;5.95;;;3.03;;
19006;SDS011;9636;47.382;8.480;2024-02-15T14:04:24;9.50;;;3.40;;
19006;SDS011;9636;47.382;8.480;2024-02-15T14:06:53;6.75;;;3.13;;
19006;SDS011;9636;47.382;8.480;2024-02-15T14:09:21;8.13;;;3.05;;
19006;SDS011;9636;47.382;8.480;2024-02-15T14:11:51;5.55;;;3.03;;
19006;SDS011;9636;47.382;8.480;2024-02-15T14:14:18;9.68;;;3.58;;
19006;SDS011;9636;47.382;8.480;2024-02-15T14:16:45;6.95;;;3.58;;
19006;SDS011;9636;47.382;8.480;2024-02-15T14:19:12;8.43;;;3.75;;
19006;SDS011;9636;47.382;8.480;2024-02-15T14:21:41;9.27;;;3.75;;
19006;SDS011;9636;47.382;8.480;2024-02-15T14:24:10;5.45;;;2.95;;
19006;SDS011;9636;47.382;8.480;2024-02-15T14:26:37;5.20;;;3.13;;
19006;SDS011;9636;47.382;8.480;2024-02-15T14:29:03;4.13;;;3.15;;
19006;SDS011;9636;47.382;8.480;2024-02-15T14:31:30;4.45;;;3.10;;
19006;SDS011;9636;47.382;8.480;2024-02-15T14:34:14;6.90;;;3.20;;
19006;SDS011;9636;47.382;8.480;2024-02-15T14:36:44;6.75;;;3.30;;
19006;SDS011;9636;47.382;8.480;2024-02-15T14:39:12;6.63;;;3.17;;
19006;SDS011;9636;47.382;8.480;2024-02-15T14:41:39;5.95;;;3.20;;
19006;SDS011;9636;47.382;8.480;2024-02-15T14:44:08;4.20;;;3.17;;
19006;SDS011;9636;47.382;8.480;2024-02-15T14:46:35;5.30;;;3.17;;
19006;SDS011;9636;47.382;8.480;2024-02-15T14:49:02;4.82;;;2.90;;
19006;SDS011;9636;47.382;8.480;2024-02-15T14:51:29;7.45;;;3.55;;
19006;SDS011;9636;47.382;8.480;2024-02-15T14:53:59;6.72;;;3.42;;
19006;SDS011;9636;47.382;8.480;2024-02-15T14:56:26;9.55;;;3.17;;
19006;SDS011;9636;47.382;8.480;2024-02-15T14:58:53;6.80;;;3.33;;
19006;SDS011;9636;47.382;8.480;2024-02-15T15:01:20;11.10;;;5.30;;
19006;SDS011;9636;47.382;8.480;2024-02-15T15:03:55;9.17;;;5.83;;
19006;SDS011;9636;47.382;8.480;2024-02-15T15:06:23;9.77;;;4.20;;
19006;SDS011;9636;47.382;8.480;2024-02-15T15:09:10;11.17;;;4.10;;
19006;SDS011;9636;47.382;8.480;2024-02-15T15:11:54;7.97;;;3.30;;
19006;SDS011;9636;47.382;8.480;2024-02-15T15:14:39;6.17;;;3.33;;
19006;SDS011;9636;47.382;8.480;2024-02-15T15:17:06;8.70;;;3.23;;
19006;SDS011;9636;47.382;8.480;2024-02-15T15:19:35;5.47;;;3.20;;
19006;SDS011;9636;47.382;8.480;2024-02-15T15:22:02;6.70;;;3.00;;
19006;SDS011;9636;47.382;8.480;2024-02-15T15:24:31;4.33;;;3.10;;
19006;SDS011;9636;47.382;8.480;2024-02-15T15:26:58;5.43;;;3.40;;